createdAt,value
2022-09-06T03:01:18.961Z,19.30
2022-09-06T03:03:46.858Z,19.30
2022-09-06T03:06:14.738Z,19.40
2022-09-06T03:08:42.592Z,19.50
2022-09-06T03:11:10.500Z,19.50
2022-09-06T03:13:38.481Z,19.60
2022-09-06T03:16:06.434Z,19.70
2022-09-06T03:18:35.744Z,19.70
2022-09-06T03:21:03.799Z,19.70
2022-09-06T03:23:32.071Z,19.70
2022-09-06T03:25:59.934Z,19.80
2022-09-06T03:28:27.958Z,19.80
2022-09-06T03:30:56.040Z,19.80
2022-09-06T03:33:24.030Z,19.90
2022-09-06T03:35:55.024Z,19.90
2022-09-06T03:38:23.409Z,19.90
2022-09-06T03:40:52.797Z,19.80
2022-09-06T03:43:22.967Z,19.60
2022-09-06T03:45:53.136Z,19.60
2022-09-06T03:48:22.998Z,19.60
2022-09-06T03:50:54.150Z,19.60
2022-09-06T03:53:23.087Z,19.50
2022-09-06T03:55:53.143Z,19.40
2022-09-06T03:58:23.158Z,19.40
2022-09-06T04:01:00.096Z,19.40
2022-09-06T04:03:28.031Z,19.40
2022-09-06T04:05:57.293Z,19.40
2022-09-06T04:08:25.139Z,19.40
2022-09-06T04:10:55.099Z,19.40
2022-09-06T04:13:23.264Z,19.30
2022-09-06T04:15:52.406Z,19.20
2022-09-06T04:18:21.497Z,19.20
2022-09-06T04:20:50.526Z,19.00
2022-09-06T04:23:20.639Z,18.90
2022-09-06T04:25:48.833Z,18.90
2022-09-06T04:28:18.303Z,18.90
2022-09-06T04:30:46.227Z,18.90
2022-09-06T04:33:14.068Z,18.90
2022-09-06T04:35:41.920Z,18.80
2022-09-06T04:38:09.781Z,18.70
2022-09-06T04:40:38.987Z,18.70
2022-09-06T04:43:06.863Z,18.80
2022-09-06T04:45:34.765Z,18.80
2022-09-06T04:48:03.016Z,18.80
2022-09-06T04:50:30.894Z,18.90
2022-09-06T04:53:05.881Z,18.80
2022-09-06T04:55:33.972Z,18.80
2022-09-06T04:58:03.478Z,18.90
2022-09-06T05:00:32.894Z,18.90
2022-09-06T05:03:00.770Z,18.80
2022-09-06T05:05:28.946Z,18.60
2022-09-06T05:07:57.784Z,18.70
2022-09-06T05:10:25.810Z,18.60
2022-09-06T05:12:55.205Z,18.40
2022-09-06T05:15:24.718Z,18.50
2022-09-06T05:17:52.715Z,18.50
2022-09-06T05:20:20.589Z,18.60
2022-09-06T05:22:54.171Z,18.50
2022-09-06T05:25:22.231Z,18.40
2022-09-06T05:27:50.114Z,18.40
2022-09-06T05:30:19.600Z,18.40
2022-09-06T05:32:48.866Z,18.40
2022-09-06T05:35:16.952Z,18.50
2022-09-06T05:37:44.806Z,18.60
2022-09-06T05:40:12.891Z,18.60
2022-09-06T05:42:41.133Z,18.60
2022-09-06T05:45:09.778Z,18.60
2022-09-06T05:47:38.367Z,18.50
2022-09-06T05:50:08.524Z,18.50
2022-09-06T05:52:36.572Z,18.60
2022-09-06T05:55:05.048Z,18.70
2022-09-06T05:57:32.914Z,18.70
2022-09-06T06:00:00.939Z,18.80
2022-09-06T06:02:28.823Z,18.60
2022-09-06T06:04:58.580Z,18.60
2022-09-06T06:07:27.775Z,18.70
2022-09-06T06:09:55.627Z,18.80
2022-09-06T06:12:23.512Z,18.90
2022-09-06T06:14:51.387Z,18.80
2022-09-06T06:17:19.239Z,18.80
2022-09-06T06:19:47.100Z,18.80
2022-09-06T06:22:14.970Z,18.70
2022-09-06T06:24:44.150Z,18.70
2022-09-06T06:27:11.985Z,18.70
2022-09-06T06:29:39.850Z,18.80
2022-09-06T06:32:07.831Z,18.80
2022-09-06T06:34:35.746Z,18.80
2022-09-06T06:37:03.626Z,18.80
2022-09-06T06:39:31.577Z,18.90
2022-09-06T06:42:00.859Z,18.90
2022-09-06T06:44:41.944Z,18.80
2022-09-06T06:47:09.810Z,18.90
2022-09-06T06:49:37.654Z,18.90
2022-09-06T06:52:05.555Z,18.90
2022-09-06T06:54:33.411Z,19.00
2022-09-06T06:57:04.277Z,18.90
2022-09-06T06:59:32.217Z,19.00
2022-09-06T07:02:00.275Z,19.00
2022-09-06T07:04:28.280Z,19.10
2022-09-06T07:12:34.479Z,19.20
2022-09-06T07:15:02.340Z,19.20
2022-09-06T07:17:30.588Z,19.30
2022-09-06T07:20:14.506Z,19.30
2022-09-06T07:22:43.564Z,19.40
2022-09-06T07:25:14.425Z,19.50
2022-09-06T07:30:19.853Z,19.50
2022-09-06T07:32:47.992Z,19.50
2022-09-06T07:35:16.008Z,19.50
2022-09-06T07:37:43.878Z,19.60
2022-09-06T07:40:12.432Z,19.60
2022-09-06T07:42:40.496Z,19.70
2022-09-06T07:45:10.709Z,19.80
2022-09-06T07:53:20.519Z,20.20
2022-09-06T07:55:54.035Z,20.30
2022-09-06T07:58:22.806Z,20.40
2022-09-06T08:00:52.064Z,20.50
2022-09-06T08:03:20.039Z,20.50
2022-09-06T08:11:28.682Z,20.50
2022-09-06T08:13:57.815Z,20.70
2022-09-06T08:16:29.396Z,20.70
2022-09-06T08:19:00.141Z,20.80
2022-09-06T08:21:29.590Z,20.90
2022-09-06T08:23:58.815Z,20.90
2022-09-06T08:26:28.026Z,21.00
2022-09-06T08:28:57.482Z,21.10
2022-09-06T08:31:27.709Z,21.10
2022-09-06T08:33:56.424Z,21.10
2022-09-06T08:36:27.119Z,21.20
2022-09-06T08:38:55.037Z,21.20
2022-09-06T08:41:27.388Z,21.30
2022-09-06T08:46:56.772Z,21.40
2022-09-06T08:49:26.515Z,21.50
2022-09-06T08:52:20.377Z,21.60
2022-09-06T08:54:55.208Z,21.60
2022-09-06T08:57:40.255Z,21.60
2022-09-06T09:00:11.354Z,21.60
2022-09-06T09:02:47.504Z,21.70
2022-09-06T09:05:23.018Z,21.80
2022-09-06T09:08:01.224Z,21.90
2022-09-06T09:10:30.682Z,22.00
2022-09-06T09:13:02.111Z,22.00
2022-09-06T09:15:30.006Z,22.10
2022-09-06T09:18:02.551Z,22.20
2022-09-06T09:20:31.603Z,22.20
2022-09-06T09:23:00.182Z,22.20
2022-09-06T09:25:35.239Z,22.30
2022-09-06T09:28:03.793Z,22.40
2022-09-06T09:30:48.969Z,22.50
2022-09-06T09:33:29.057Z,22.60
2022-09-06T09:35:59.176Z,22.80
2022-09-06T09:38:29.099Z,23.00
2022-09-06T09:40:59.063Z,23.10
2022-09-06T09:43:29.685Z,23.40
2022-09-06T09:46:29.741Z,23.70
2022-09-06T09:49:08.370Z,23.90
2022-09-06T09:51:38.184Z,24.20
2022-09-06T09:54:08.182Z,24.40
2022-09-06T09:56:45.055Z,24.60
2022-09-06T09:59:23.632Z,24.80
2022-09-06T10:01:54.737Z,24.90
2022-09-06T10:04:46.965Z,25.10
2022-09-06T10:07:17.532Z,25.30
2022-09-06T10:09:47.965Z,25.50
2022-09-06T10:12:19.197Z,25.60
2022-09-06T10:14:48.948Z,25.70
2022-09-06T10:17:29.959Z,25.70
2022-09-06T10:20:02.299Z,25.80
2022-09-06T10:22:32.547Z,25.90
2022-09-06T10:25:36.446Z,26.10
2022-09-06T10:28:22.903Z,26.10
2022-09-06T10:31:13.758Z,26.00
2022-09-06T10:33:53.762Z,26.00
2022-09-06T10:36:29.320Z,26.00
2022-09-06T10:39:03.917Z,25.90
2022-09-06T10:41:57.097Z,25.80
2022-09-06T10:44:39.837Z,25.90
2022-09-06T10:47:12.029Z,26.00
2022-09-06T10:49:44.086Z,25.90
2022-09-06T10:52:18.352Z,26.00
2022-09-06T10:54:47.303Z,26.00
2022-09-06T11:00:13.106Z,26.10
2022-09-06T11:02:47.075Z,26.20
2022-09-06T11:11:08.172Z,26.30
2022-09-06T11:13:36.113Z,26.50
2022-09-06T11:16:10.063Z,26.60
2022-09-06T11:18:43.954Z,26.60
2022-09-06T11:21:30.850Z,26.60
2022-09-06T11:24:10.255Z,26.70
2022-09-06T11:26:44.634Z,26.90
2022-09-06T11:29:20.670Z,27.00
2022-09-06T11:34:52.455Z,27.40
2022-09-06T11:37:26.965Z,27.80
2022-09-06T11:43:15.363Z,28.10
2022-09-06T11:45:47.521Z,28.70
2022-09-06T11:49:01.798Z,29.30
2022-09-06T11:51:36.134Z,30.00
2022-09-06T11:54:42.471Z,30.20
2022-09-06T11:57:16.480Z,30.10
2022-09-06T11:59:55.279Z,30.10
2022-09-06T12:02:41.664Z,30.50
2022-09-06T12:05:26.707Z,31.10
2022-09-06T12:08:32.729Z,31.60
2022-09-06T12:11:06.699Z,32.00
2022-09-06T12:13:50.547Z,32.40
2022-09-06T12:16:19.093Z,32.70
2022-09-06T12:19:02.407Z,32.90
2022-09-06T12:21:42.418Z,32.00
2022-09-06T12:24:41.726Z,30.90
2022-09-06T12:27:15.638Z,30.10
2022-09-06T12:29:54.944Z,29.40
2022-09-06T12:32:27.633Z,29.00
2022-09-06T12:37:51.990Z,28.60
2022-09-06T12:40:20.667Z,28.50
2022-09-06T12:42:51.025Z,28.40
2022-09-06T12:45:26.550Z,28.50
2022-09-06T12:48:06.931Z,28.40
2022-09-06T12:50:35.048Z,28.40
2022-09-06T12:53:05.467Z,28.40
2022-09-06T12:55:36.139Z,28.40
2022-09-06T12:58:06.580Z,28.30
2022-09-06T13:00:40.457Z,28.30
2022-09-06T13:03:26.394Z,28.30
2022-09-06T13:05:55.195Z,28.40
2022-09-06T13:08:34.425Z,28.40
2022-09-06T13:11:04.674Z,28.40
2022-09-06T13:13:33.396Z,28.50
2022-09-06T13:16:03.690Z,28.60
2022-09-06T13:18:35.417Z,28.60
2022-09-06T13:21:05.628Z,28.60
2022-09-06T13:23:42.134Z,28.60
2022-09-06T13:26:10.102Z,28.80
2022-09-06T13:28:38.663Z,29.00
2022-09-06T13:31:10.585Z,29.00
2022-09-06T13:33:39.089Z,29.00
2022-09-06T13:36:17.190Z,29.40
2022-09-06T13:38:46.361Z,29.90
2022-09-06T13:41:41.056Z,30.30
2022-09-06T13:44:21.347Z,31.40
2022-09-06T13:46:55.079Z,33.60
2022-09-06T13:49:23.760Z,35.60
2022-09-06T13:51:52.551Z,37.30
2022-09-06T13:54:20.510Z,38.70
2022-09-06T13:56:49.907Z,39.70
2022-09-06T13:59:18.718Z,40.10
2022-09-06T14:01:48.899Z,39.20
2022-09-06T14:04:21.729Z,39.10
2022-09-06T14:06:49.913Z,38.70
2022-09-06T14:09:17.779Z,38.80
2022-09-06T14:11:48.196Z,38.60
2022-09-06T14:14:17.503Z,39.70
2022-09-06T14:16:45.948Z,40.80
2022-09-06T14:19:15.302Z,42.00
2022-09-06T14:21:44.617Z,40.40
2022-09-06T14:24:12.582Z,38.80
2022-09-06T14:26:40.484Z,37.00
2022-09-06T14:29:08.366Z,36.00
2022-09-06T14:31:36.304Z,35.70
2022-09-06T14:34:04.883Z,36.80
2022-09-06T14:36:36.955Z,37.60
2022-09-06T14:39:06.371Z,38.50
2022-09-06T14:41:34.251Z,39.90
2022-09-06T14:44:02.139Z,39.40
2022-09-06T14:46:30.678Z,38.30
2022-09-06T14:49:00.914Z,35.70
2022-09-06T14:51:30.096Z,34.40
2022-09-06T14:54:00.293Z,33.50
2022-09-06T14:56:30.323Z,32.60
2022-09-06T14:58:59.857Z,32.10
2022-09-06T15:01:32.910Z,31.70
2022-09-06T15:04:05.229Z,31.40
2022-09-06T15:06:36.749Z,31.10
2022-09-06T15:09:05.305Z,30.90
2022-09-06T15:11:36.286Z,30.70
2022-09-06T15:14:07.703Z,30.50
2022-09-06T15:16:36.395Z,30.30
2022-09-06T15:19:05.031Z,30.10
2022-09-06T15:21:33.537Z,30.00
2022-09-06T15:24:02.511Z,29.80
2022-09-06T15:26:31.170Z,29.50
2022-09-06T15:29:00.592Z,29.30
2022-09-06T15:31:28.591Z,29.10
2022-09-06T15:33:58.012Z,28.90
2022-09-06T15:36:26.052Z,28.80
2022-09-06T15:38:54.301Z,28.70
2022-09-06T15:41:24.274Z,28.60
2022-09-06T15:43:54.690Z,28.50
2022-09-06T15:46:45.483Z,28.40
2022-09-06T15:49:15.267Z,28.30
2022-09-06T15:51:43.586Z,28.20
2022-09-06T15:54:12.905Z,28.10
2022-09-06T15:56:41.293Z,28.00
2022-09-06T15:59:09.815Z,27.90
2022-09-06T16:01:38.561Z,27.80
2022-09-06T16:04:08.343Z,27.70
2022-09-06T16:06:39.603Z,27.60
2022-09-06T16:09:09.227Z,27.50
2022-09-06T16:11:37.543Z,27.50
2022-09-06T16:14:06.304Z,27.40
2022-09-06T16:16:34.835Z,27.40
2022-09-06T16:19:03.246Z,27.30
2022-09-06T16:21:34.739Z,27.30
2022-09-06T16:24:04.605Z,27.20
2022-09-06T16:26:34.800Z,27.20
2022-09-06T16:29:03.873Z,27.20
2022-09-06T16:31:39.128Z,27.10
2022-09-06T16:34:08.712Z,27.10
2022-09-06T16:36:38.403Z,26.90
2022-09-06T16:39:07.274Z,26.70
2022-09-06T16:41:40.250Z,26.50
2022-09-06T16:44:08.549Z,26.30
2022-09-06T16:46:36.478Z,26.10
2022-09-06T16:49:04.635Z,25.80
2022-09-06T16:51:32.541Z,25.50
2022-09-06T16:54:02.025Z,25.10
2022-09-06T16:56:33.512Z,23.10
2022-09-06T16:59:04.113Z,20.80
2022-09-06T17:01:33.181Z,20.40
2022-09-06T17:04:02.128Z,20.30
2022-09-06T17:06:30.657Z,20.30
2022-09-06T17:08:59.243Z,20.30
2022-09-06T17:11:29.826Z,20.20
2022-09-06T17:13:58.510Z,20.30
2022-09-06T17:16:44.785Z,20.50
2022-09-06T17:19:13.865Z,20.60
2022-09-06T17:21:42.380Z,20.50
2022-09-06T17:24:10.634Z,20.50
2022-09-06T17:26:40.378Z,20.50
2022-09-06T17:29:09.139Z,20.30
2022-09-06T17:31:38.115Z,20.30
2022-09-06T17:34:07.704Z,20.40
2022-09-06T17:36:36.554Z,20.30
2022-09-06T17:39:06.515Z,20.30
2022-09-06T17:41:37.669Z,20.10
2022-09-06T17:44:08.058Z,20.10
2022-09-06T17:46:36.338Z,19.90
2022-09-06T17:49:05.926Z,19.90
2022-09-06T17:51:34.567Z,19.90
2022-09-06T17:54:02.532Z,20.00
2022-09-06T17:56:46.938Z,19.90
2022-09-06T17:59:16.234Z,20.00
2022-09-06T18:01:45.893Z,20.00
2022-09-06T18:04:15.251Z,20.00
2022-09-06T18:06:46.380Z,20.00
2022-09-06T18:09:17.504Z,20.00
2022-09-06T18:11:47.004Z,20.10
2022-09-06T18:14:20.522Z,20.10
2022-09-06T18:16:49.463Z,20.20
2022-09-06T18:19:18.608Z,20.20
2022-09-06T18:21:47.108Z,20.10
2022-09-06T18:24:15.412Z,20.00
2022-09-06T18:26:44.496Z,19.90
2022-09-06T18:29:14.735Z,20.00
2022-09-06T18:31:44.821Z,19.90
2022-09-06T18:34:13.114Z,19.80
2022-09-06T18:36:41.040Z,19.90
2022-09-06T18:39:08.960Z,19.80
2022-09-06T18:41:54.378Z,19.90
2022-09-06T18:44:22.540Z,19.80
2022-09-06T18:46:55.652Z,19.70
2022-09-06T18:49:23.602Z,19.80
2022-09-06T18:51:51.587Z,19.80
2022-09-06T18:54:19.643Z,19.90
2022-09-06T18:56:49.978Z,19.80
2022-09-06T18:59:18.184Z,19.30
2022-09-06T19:01:46.477Z,19.20
2022-09-06T19:04:15.901Z,19.50
2022-09-06T19:06:45.054Z,19.60
2022-09-06T19:09:15.241Z,19.50
2022-09-06T19:11:45.471Z,19.50
2022-09-06T19:14:13.816Z,19.60
2022-09-06T19:16:42.372Z,19.60
2022-09-06T19:19:11.730Z,19.60
2022-09-06T19:21:42.557Z,19.50
2022-09-06T19:24:12.031Z,19.50
2022-09-06T19:26:42.820Z,19.50
2022-09-06T19:29:14.660Z,19.60
2022-09-06T19:31:43.555Z,19.60
2022-09-06T19:34:12.181Z,19.40
2022-09-06T19:36:41.451Z,19.40
2022-09-06T19:39:12.927Z,19.10
2022-09-06T19:41:42.919Z,18.90
2022-09-06T19:44:12.425Z,19.00
2022-09-06T19:46:45.381Z,19.10
2022-09-06T19:49:15.659Z,19.30
2022-09-06T19:51:46.400Z,19.10
2022-09-06T19:54:15.295Z,19.20
2022-09-06T19:56:44.090Z,19.20
2022-09-06T19:59:13.469Z,19.10
2022-09-06T20:01:43.035Z,19.10
2022-09-06T20:04:12.758Z,19.20
2022-09-06T20:06:40.923Z,19.40
2022-09-06T20:09:11.672Z,19.30
2022-09-06T20:11:41.398Z,19.20
2022-09-06T20:14:10.171Z,19.10
2022-09-06T20:16:41.814Z,18.90
2022-09-06T20:19:11.803Z,18.60
2022-09-06T20:21:39.691Z,18.50
2022-09-06T20:24:07.992Z,18.20
2022-09-06T20:26:37.767Z,18.10
2022-09-06T20:29:06.605Z,17.80
2022-09-06T20:31:36.271Z,17.80
2022-09-06T20:34:05.640Z,17.80
2022-09-06T20:36:33.530Z,17.90
2022-09-06T20:39:02.007Z,17.90
2022-09-06T20:41:30.219Z,17.90
2022-09-06T20:44:00.734Z,17.80
2022-09-06T20:46:30.801Z,17.70
2022-09-06T20:49:01.815Z,17.70
2022-09-06T20:51:29.674Z,17.70
2022-09-06T20:53:59.040Z,17.70
2022-09-06T20:56:28.244Z,17.70
2022-09-06T20:58:57.828Z,17.70
2022-09-06T21:01:29.024Z,17.70
2022-09-06T21:03:58.453Z,17.70
2022-09-06T21:06:28.474Z,17.70
2022-09-06T21:08:56.871Z,17.80
2022-09-06T21:11:25.066Z,17.70
2022-09-06T21:13:55.730Z,17.70
2022-09-06T21:16:25.493Z,17.70
2022-09-06T21:18:56.345Z,17.90
2022-09-06T21:21:25.325Z,18.00
2022-09-06T21:23:53.561Z,18.20
2022-09-06T21:26:22.337Z,18.30
2022-09-06T21:28:51.110Z,18.60
